Time;durP1;ratioP1;P1;durP2;ratioP2;P2;SDS_P1;SDS_P2;PMS_P1;PMS_P2;Temp;Humidity;BMP_temperature;BMP_pressure;BME280_temperature;BME280_humidity;BME280_pressure;Samples;Min_cycle;Max_cycle;Signal;HPM_P1;HPM_P2
2023/12/06 00:02:20;;;;;;;94.10;42.70;;;;;;;-3.43;76.11;100772.74;106419;1288;58776;-60
2023/12/06 00:05:10;;;;;;;;;;;;;;;-3.44;76.13;100774.84;106458;1287;60214;-60
2023/12/06 00:07:56;;;;;;;93.80;41.30;;;;;;;-3.46;76.02;100779.33;106355;1289;74520;-60
2023/12/06 00:10:42;;;;;;;88.00;41.90;;;;;;;-3.47;76.09;100780.96;106400;1288;67403;-60
2023/12/06 00:13:28;;;;;;;;;;;;;;;-3.46;76.11;100781.52;106428;1288;71485;-61
2023/12/06 00:16:14;;;;;;;85.10;38.70;;;;;;;-3.45;76.25;100776.35;106376;1286;59324;-59
2023/12/06 00:19:00;;;;;;;;;;;;;;;-3.45;76.08;100770.10;106432;1287;59059;-60
2023/12/06 00:21:46;;;;;;;84.40;37.30;;;;;;;-3.44;76.21;100765.25;106418;1288;73434;-61
2023/12/06 00:24:31;;;;;;;;;;;;;;;-3.45;76.24;100770.96;106373;1288;66581;-61
2023/12/06 00:27:17;;;;;;;76.20;36.50;;;;;;;-3.45;76.18;100767.08;106420;1288;72955;-60
2023/12/06 00:30:04;;;;;;;;;;;;;;;-3.44;76.35;100768.79;106424;1288;58746;-60
2023/12/06 00:32:50;;;;;;;84.80;39.60;;;;;;;-3.45;76.26;100770.47;106376;1288;59333;-60
2023/12/06 00:35:36;;;;;;;78.10;38.80;;;;;;;-3.44;76.49;100773.69;106424;1288;73665;-61
2023/12/06 00:38:22;;;;;;;;;;;;;;;-3.41;76.37;100780.91;106426;1287;68384;-60
2023/12/06 00:41:08;;;;;;;77.10;37.30;;;;;;;-3.39;76.35;100778.63;106345;1288;71247;-61
2023/12/06 00:43:55;;;;;;;;;;;;;;;-3.37;76.37;100787.66;106395;1289;58968;-60
2023/12/06 00:46:41;;;;;;;79.50;37.70;;;;;;;-3.37;76.37;100795.39;106428;1289;59427;-60
2023/12/06 00:49:27;;;;;;;85.40;40.50;;;;;;;-3.36;76.28;100797.31;106413;1289;73396;-60
2023/12/06 00:52:13;;;;;;;86.50;41.40;;;;;;;-3.33;76.39;100798.89;106361;1287;67378;-61
2023/12/06 00:54:58;;;;;;;;;;;;;;;-3.32;76.43;100799.96;106465;1286;62576;-60
2023/12/06 00:57:44;;;;;;;76.90;36.10;;;;;;;-3.33;76.24;100798.27;106370;1289;58837;-61
2023/12/06 01:00:30;;;;;;;82.50;39.60;;;;;;;-3.32;76.33;100797.80;106397;1291;60149;-61
2023/12/06 01:03:16;;;;;;;;;;;;;;;-3.29;76.58;100797.56;106435;1288;74556;-61
2023/12/06 01:06:03;;;;;;;85.40;38.30;;;;;;;-3.28;76.39;100801.67;106446;1286;68500;-60
2023/12/06 01:08:49;;;;;;;67.20;33.10;;;;;;;-3.27;76.40;100803.05;106381;1290;72491;-60
2023/12/06 01:11:35;;;;;;;85.70;38.30;;;;;;;-3.26;76.37;100804.46;106401;1287;61996;-60
2023/12/06 01:14:22;;;;;;;79.00;38.50;;;;;;;-3.25;76.43;100804.49;106430;1286;59364;-61
2023/12/06 01:17:08;;;;;;;85.60;38.70;;;;;;;-3.23;76.36;100807.45;106434;1287;73223;-61
2023/12/06 01:19:54;;;;;;;85.00;42.30;;;;;;;-3.21;76.61;100811.23;106376;1286;67228;-61
2023/12/06 01:22:40;;;;;;;83.90;38.70;;;;;;;-3.22;76.54;100809.19;106313;1286;71425;-61
2023/12/06 01:25:26;;;;;;;91.50;37.80;;;;;;;-3.20;76.48;100807.73;106416;1287;59026;-60
2023/12/06 01:28:12;;;;;;;;;;;;;;;-3.19;76.39;100804.91;106427;1287;59010;-61
2023/12/06 01:30:58;;;;;;;75.00;38.60;;;;;;;-3.19;76.57;100802.73;106396;1289;73911;-61
2023/12/06 01:33:44;;;;;;;80.80;40.20;;;;;;;-3.18;76.54;100809.88;106367;1287;67407;-60
2023/12/06 01:36:30;;;;;;;87.80;40.90;;;;;;;-3.16;76.58;100811.10;106397;1286;71402;-61
2023/12/06 01:39:16;;;;;;;82.90;40.60;;;;;;;-3.16;76.44;100812.11;106413;1286;60294;-61
2023/12/06 01:42:03;;;;;;;83.80;38.10;;;;;;;-3.15;76.56;100817.41;106354;1288;59386;-61
2023/12/06 01:44:49;;;;;;;84.90;39.30;;;;;;;-3.12;76.58;100822.92;106285;1289;74593;-60
2023/12/06 01:47:36;;;;;;;82.20;41.10;;;;;;;-3.10;76.58;100827.02;106405;1286;67444;-61
2023/12/06 01:50:23;;;;;;;77.40;38.90;;;;;;;-3.09;76.57;100830.46;106321;1287;72560;-61
2023/12/06 01:53:09;;;;;;;79.30;38.10;;;;;;;-3.07;76.58;100828.34;106346;1286;59502;-61
2023/12/06 01:55:55;;;;;;;79.00;40.10;;;;;;;-3.04;76.71;100829.14;106433;1291;59045;-61
2023/12/06 01:58:42;;;;;;;85.10;41.10;;;;;;;-3.02;76.62;100830.71;106419;1286;73332;-59
2023/12/06 02:01:28;;;;;;;89.90;42.20;;;;;;;-2.99;76.61;100829.00;106369;1289;68501;-61
2023/12/06 02:04:14;;;;;;;;;;;;;;;-3.00;76.65;100825.11;106409;1289;71416;-61
2023/12/06 02:07:00;;;;;;;73.70;36.10;;;;;;;-2.99;76.57;100824.27;106377;1290;59196;-60
2023/12/06 02:09:46;;;;;;;;;;;;;;;-3.01;76.55;100821.19;106374;1289;59010;-61
2023/12/06 02:12:32;;;;;;;86.70;40.10;;;;;;;-3.02;76.68;100820.30;106430;1288;74215;-60
2023/12/06 02:15:18;;;;;;;;;;;;;;;-3.03;76.65;100819.07;106349;1287;68419;-61
2023/12/06 02:18:05;;;;;;;69.80;35.30;;;;;;;-3.03;76.70;100821.42;106310;1289;73125;-60
2023/12/06 02:20:53;;;;;;;84.10;38.90;;;;;;;-3.04;76.72;100822.73;106325;1286;59360;-61
2023/12/06 02:23:41;;;;;;;84.10;40.20;;;;;;;-3.04;76.75;100825.27;106402;1287;59254;-59
2023/12/06 02:26:27;;;;;;;67.90;34.40;;;;;;;-3.04;76.69;100822.40;106403;1286;74387;-61
2023/12/06 02:29:13;;;;;;;80.10;39.60;;;;;;;-3.05;76.73;100820.33;106391;1286;67164;-61
2023/12/06 02:31:59;;;;;;;;;;;;;;;-3.07;76.62;100820.26;106390;1286;70449;-60
2023/12/06 02:34:47;;;;;;;85.10;41.80;;;;;;;-3.07;76.78;100822.59;106343;1286;58916;-61
2023/12/06 02:37:34;;;;;;;82.30;39.90;;;;;;;-3.08;76.78;100825.95;106363;1287;59936;-61
2023/12/06 02:40:22;;;;;;;82.50;40.10;;;;;;;-3.07;76.80;100824.30;106428;1290;73351;-60
2023/12/06 02:43:09;;;;;;;82.50;40.00;;;;;;;-3.05;76.80;100822.86;106376;1289;68065;-60
2023/12/06 02:45:54;;;;;;;;;;;;;;;-3.04;76.79;100818.35;106401;1286;71403;-61
2023/12/06 02:48:40;;;;;;;81.40;39.60;;;;;;;-3.03;76.76;100816.52;106398;1286;59465;-61
2023/12/06 02:51:26;;;;;;;;;;;;;;;-3.04;76.92;100819.71;106324;1289;59259;-60
2023/12/06 02:54:12;;;;;;;84.60;36.60;;;;;;;-3.03;76.84;100818.38;106401;1286;74526;-61
2023/12/06 02:56:58;;;;;;;82.70;39.70;;;;;;;-3.03;77.21;100816.04;106371;1290;68669;-61
2023/12/06 02:59:44;;;;;;;;;;;;;;;-3.04;77.17;100819.68;106375;1289;71216;-61
2023/12/06 03:02:30;;;;;;;86.10;40.30;;;;;;;-3.05;76.99;100815.45;106413;1291;58969;-61
2023/12/06 03:05:17;;;;;;;85.10;41.00;;;;;;;-3.04;77.25;100817.52;106368;1289;60175;-61
2023/12/06 03:08:03;;;;;;;84.10;38.60;;;;;;;-3.04;77.15;100816.33;106373;1286;74485;-61
2023/12/06 03:10:49;;;;;;;;;;;;;;;-3.04;77.15;100812.60;106437;1289;67003;-61
2023/12/06 03:13:35;;;;;;;76.80;35.70;;;;;;;-3.03;77.04;100812.33;106348;1291;71191;-60
2023/12/06 03:16:21;;;;;;;83.90;40.10;;;;;;;-3.03;77.20;100813.15;106324;1286;59065;-61
2023/12/06 03:19:07;;;;;;;85.50;41.30;;;;;;;-3.04;77.02;100812.62;106239;1288;60184;-61
2023/12/06 03:21:53;;;;;;;91.70;42.50;;;;;;;-3.04;77.07;100811.10;106341;1288;74517;-60
2023/12/06 03:24:39;;;;;;;78.40;38.60;;;;;;;-3.04;77.00;100813.27;106418;1290;67413;-60
2023/12/06 03:27:25;;;;;;;;;;;;;;;-3.03;76.96;100811.29;106332;1291;72328;-60
2023/12/06 03:30:11;;;;;;;85.20;40.00;;;;;;;-3.04;77.04;100807.20;106411;1291;59309;-60
2023/12/06 03:32:57;;;;;;;82.00;38.30;;;;;;;-3.08;77.11;100805.38;106408;1287;58947;-61
2023/12/06 03:35:43;;;;;;;79.10;39.80;;;;;;;-3.12;77.10;100804.04;106361;1289;73134;-60
2023/12/06 03:38:29;;;;;;;82.10;40.00;;;;;;;-3.16;77.11;100800.34;106378;1286;70120;-61
2023/12/06 03:41:15;;;;;;;82.80;41.60;;;;;;;-3.17;77.05;100799.77;106412;1290;73635;-60
2023/12/06 03:44:01;;;;;;;85.10;40.40;;;;;;;-3.17;77.13;100801.30;106362;1289;59034;-61
2023/12/06 03:46:47;;;;;;;77.20;38.40;;;;;;;-3.18;77.09;100797.23;106393;1288;59069;-60
2023/12/06 03:49:34;;;;;;;88.00;41.00;;;;;;;-3.18;77.21;100795.70;106388;1289;74569;-60
2023/12/06 03:52:21;;;;;;;75.80;38.40;;;;;;;-3.19;77.26;100789.89;106337;1286;68679;-60
2023/12/06 03:55:08;;;;;;;80.00;38.90;;;;;;;-3.21;77.02;100782.93;106320;1289;72437;-61
2023/12/06 03:57:53;;;;;;;;;;;;;;;-3.24;77.08;100782.29;106320;1286;59334;-60
2023/12/06 04:00:39;;;;;;;91.50;39.50;;;;;;;-3.27;77.12;100783.02;106372;1286;59859;-61
2023/12/06 04:03:25;;;;;;;80.00;37.10;;;;;;;-3.30;77.19;100780.86;106284;1288;73137;-61
2023/12/06 04:06:11;;;;;;;82.90;38.00;;;;;;;-3.36;77.09;100778.23;106352;1286;67474;-61
2023/12/06 04:08:58;;;;;;;77.00;36.90;;;;;;;-3.42;77.17;100775.48;106353;1287;71378;-60
2023/12/06 04:11:44;;;;;;;;;;;;;;;-3.48;77.39;100780.08;106394;1289;58726;-60
2023/12/06 04:14:30;;;;;;;83.90;39.70;;;;;;;-3.55;77.40;100776.58;106331;1286;59006;-60
2023/12/06 04:17:17;;;;;;;;;;;;;;;-3.61;77.24;100779.84;106433;1286;73602;-60
2023/12/06 04:20:05;;;;;;;78.80;37.50;;;;;;;-3.67;77.30;100783.15;106364;1289;67476;-60
2023/12/06 04:22:51;;;;;;;81.30;37.50;;;;;;;-3.72;77.18;100781.27;106440;1286;70376;-59
2023/12/06 04:25:37;;;;;;;76.30;37.30;;;;;;;-3.75;77.30;100780.27;106421;1286;58873;-60
2023/12/06 04:28:23;;;;;;;78.50;37.30;;;;;;;-3.79;77.32;100772.69;106267;1286;59649;-60
2023/12/06 04:31:09;;;;;;;69.10;34.90;;;;;;;-3.83;77.40;100769.00;106413;1286;73977;-60
2023/12/06 04:33:55;;;;;;;;;;;;;;;-3.86;77.77;100768.18;106363;1286;69716;-60
2023/12/06 04:36:41;;;;;;;73.70;35.20;;;;;;;-3.89;77.85;100769.23;98700;1292;5003510;-60
2023/12/06 04:39:27;;;;;;;76.60;39.70;;;;;;;-3.92;77.74;100767.20;106270;1286;59494;-60
2023/12/06 04:42:14;;;;;;;;;;;;;;;-3.95;77.43;100766.24;106391;1287;73499;-60
2023/12/06 04:45:00;;;;;;;81.70;36.10;;;;;;;-3.96;77.39;100763.34;106429;1286;66948;-60
2023/12/06 04:47:49;;;;;;;78.90;39.30;;;;;;;-3.97;77.51;100757.23;106312;1288;70663;-59
2023/12/06 04:50:35;;;;;;;82.60;39.30;;;;;;;-4.01;77.84;100758.59;106343;1286;58991;-59
2023/12/06 04:53:21;;;;;;;;;;;;;;;-4.03;77.61;100752.76;106184;1288;60685;-60
2023/12/06 04:56:07;;;;;;;87.70;39.70;;;;;;;-4.05;77.86;100752.83;106290;1288;73746;-59
2023/12/06 04:58:54;;;;;;;74.20;37.80;;;;;;;-4.07;77.65;100759.16;106303;1291;68882;-60
2023/12/06 05:01:40;;;;;;;89.20;39.50;;;;;;;-4.05;77.67;100764.13;106208;1292;71343;-60
2023/12/06 05:04:27;;;;;;;86.00;40.80;;;;;;;-4.04;77.92;100766.55;106276;1288;59345;-60
2023/12/06 05:07:13;;;;;;;88.70;39.90;;;;;;;-4.05;77.73;100765.80;106286;1288;59233;-60
2023/12/06 05:09:59;;;;;;;;;;;;;;;-4.05;78.14;100765.31;106277;1289;74535;-61
2023/12/06 05:12:45;;;;;;;82.10;39.10;;;;;;;-4.05;78.23;100771.88;106310;1288;67344;-60
2023/12/06 05:15:32;;;;;;;;;;;;;;;-4.04;78.13;100774.45;106220;1289;72961;-60
2023/12/06 05:18:18;;;;;;;79.90;38.10;;;;;;;-4.03;77.96;100773.48;106244;1288;59479;-60
2023/12/06 05:21:04;;;;;;;;;;;;;;;-4.03;77.95;100779.86;106223;1288;58853;-60
2023/12/06 05:23:50;;;;;;;85.40;40.20;;;;;;;-4.03;78.02;100788.31;106246;1289;74500;-60
2023/12/06 05:26:36;;;;;;;91.40;43.30;;;;;;;-4.04;77.79;100795.32;106253;1288;67736;-60
2023/12/06 05:29:22;;;;;;;;;;;;;;;-4.04;77.88;100796.15;106243;1291;70340;-60
2023/12/06 05:32:08;;;;;;;94.10;45.10;;;;;;;-4.04;77.87;100803.57;106242;1288;58945;-60
2023/12/06 05:34:54;;;;;;;;;;;;;;;-4.05;78.00;100804.88;106215;1288;59011;-60
2023/12/06 05:37:40;;;;;;;83.00;38.90;;;;;;;-4.05;77.85;100809.08;104946;1289;74061;-60
2023/12/06 05:40:26;;;;;;;93.80;43.30;;;;;;;-4.06;77.91;100816.95;105040;1288;67694;-60
2023/12/06 05:43:13;;;;;;;93.00;42.90;;;;;;;-4.07;77.79;100825.32;104943;1289;71344;-60
2023/12/06 05:45:59;;;;;;;93.00;42.40;;;;;;;-4.06;77.82;100826.02;104952;1288;61284;-58
2023/12/06 05:48:45;;;;;;;83.70;41.40;;;;;;;-4.07;77.75;100826.16;104993;1288;61397;-60
2023/12/06 05:51:32;;;;;;;88.90;43.10;;;;;;;-4.09;77.79;100822.70;104983;1288;74047;-60
2023/12/06 05:54:18;;;;;;;87.50;43.10;;;;;;;-4.11;77.74;100821.08;105122;1288;67343;-57
2023/12/06 05:57:06;;;;;;;91.10;44.00;;;;;;;-4.14;77.59;100819.09;104920;1286;71083;-59
2023/12/06 05:59:52;;;;;;;89.40;42.50;;;;;;;-4.18;77.85;100821.31;105092;1286;61160;-59
2023/12/06 06:02:40;;;;;;;97.80;45.40;;;;;;;-4.19;77.74;100823.58;105111;1288;59272;-59
2023/12/06 06:05:27;;;;;;;98.40;45.00;;;;;;;-4.19;77.75;100826.29;106341;1286;73244;-60
2023/12/06 06:08:12;;;;;;;;;;;;;;;-4.19;77.75;100830.67;106351;1290;69268;-60
2023/12/06 06:10:58;;;;;;;91.90;42.10;;;;;;;-4.20;77.75;100836.35;106346;1288;72457;-60
2023/12/06 06:13:44;;;;;;;;;;;;;;;-4.18;77.74;100840.17;106374;1287;59415;-60
2023/12/06 06:16:30;;;;;;;87.40;41.90;;;;;;;-4.13;77.74;100846.40;106291;1289;60991;-61
2023/12/06 06:19:16;;;;;;;;;;;;;;;-4.11;77.77;100848.54;106406;1286;74486;-61
2023/12/06 06:22:02;;;;;;;97.20;41.30;;;;;;;-4.08;77.78;100854.41;106375;1289;67372;-60
2023/12/06 06:24:48;;;;;;;89.50;43.60;;;;;;;-4.06;77.73;100856.17;106366;1287;72597;-59
2023/12/06 06:27:34;;;;;;;97.10;45.30;;;;;;;-4.04;77.68;100860.48;106200;1288;59252;-60
2023/12/06 06:30:20;;;;;;;102.70;45.40;;;;;;;-4.03;77.77;100860.84;106264;1287;59642;-60
2023/12/06 06:33:07;;;;;;;;;;;;;;;-4.01;77.79;100860.78;106317;1288;73176;-60
2023/12/06 06:35:53;;;;;;;104.30;44.40;;;;;;;-4.01;77.72;100864.48;106299;1288;67489;-59
2023/12/06 06:38:42;;;;;;;92.40;43.90;;;;;;;-4.00;77.67;100864.85;106312;1287;71359;-59
2023/12/06 06:41:28;;;;;;;93.30;44.50;;;;;;;-4.00;77.77;100862.53;106330;1288;59226;-60
2023/12/06 06:44:14;;;;;;;93.80;45.40;;;;;;;-4.00;77.77;100862.50;106316;1289;59221;-60
2023/12/06 06:47:00;;;;;;;;;;;;;;;-4.01;77.76;100864.99;106134;1289;74091;-60
2023/12/06 06:49:46;;;;;;;89.10;42.40;;;;;;;-4.01;77.80;100864.84;106320;1291;68118;-59
2023/12/06 06:52:34;;;;;;;;;;;;;;;-3.98;77.76;100871.50;106244;1287;71289;-60
2023/12/06 06:55:20;;;;;;;90.40;43.30;;;;;;;-3.98;77.87;100876.38;106295;1289;59274;-60
2023/12/06 06:58:06;;;;;;;;;;;;;;;-4.02;77.92;100881.77;106291;1289;59329;-60
2023/12/06 07:00:52;;;;;;;111.70;49.90;;;;;;;-4.04;77.83;100883.35;106328;1289;73391;-60
2023/12/06 07:03:38;;;;;;;;;;;;;;;-4.06;77.93;100888.84;106308;1286;67418;-60
2023/12/06 07:06:24;;;;;;;110.10;49.80;;;;;;;-4.08;77.96;100895.64;106223;1289;71531;-60
2023/12/06 07:09:10;;;;;;;;;;;;;;;-4.11;77.87;100898.70;106369;1287;58918;-60
2023/12/06 07:11:56;;;;;;;99.80;44.00;;;;;;;-4.14;77.85;100891.99;106296;1286;60509;-59
2023/12/06 07:14:42;;;;;;;103.60;44.60;;;;;;;-4.14;77.86;100890.30;106329;1289;72410;-60
2023/12/06 07:17:29;;;;;;;109.50;47.80;;;;;;;-4.14;78.09;100891.98;106001;1287;66928;-59
2023/12/06 07:20:17;;;;;;;109.60;47.10;;;;;;;-4.14;77.87;100893.34;104996;1289;71239;-60
2023/12/06 07:23:03;;;;;;;99.30;44.80;;;;;;;-4.14;77.97;100890.98;104993;1286;61273;-58
2023/12/06 07:25:50;;;;;;;100.80;45.10;;;;;;;-4.14;78.00;100891.48;105042;1286;59850;-59
2023/12/06 07:28:37;;;;;;;108.70;46.70;;;;;;;-4.18;77.96;100891.98;105018;1287;75365;-59
2023/12/06 07:31:23;;;;;;;114.80;48.40;;;;;;;-4.22;78.04;100897.85;105002;1287;70045;-58
2023/12/06 07:34:10;;;;;;;108.70;46.80;;;;;;;-4.22;78.07;100904.23;104998;1289;71245;-58
2023/12/06 07:36:58;;;;;;;109.80;46.30;;;;;;;-4.22;78.06;100905.73;104917;1289;61257;-59
2023/12/06 07:39:44;;;;;;;105.20;46.50;;;;;;;-4.21;78.01;100911.18;105014;1286;61057;-59
2023/12/06 07:42:30;;;;;;;111.60;45.60;;;;;;;-4.19;78.09;100913.30;105008;1286;73168;-56
2023/12/06 07:45:17;;;;;;;112.50;47.30;;;;;;;-4.19;78.08;100915.33;105001;1288;71481;-58
2023/12/06 07:48:03;;;;;;;109.70;46.60;;;;;;;-4.19;78.07;100915.50;106268;1289;71342;-61
2023/12/06 07:50:50;;;;;;;101.00;45.00;;;;;;;-4.16;78.06;100914.44;106286;1288;59205;-60
2023/12/06 07:53:36;;;;;;;121.00;49.80;;;;;;;-4.14;78.17;100915.73;106319;1286;60493;-59
2023/12/06 07:56:22;;;;;;;100.00;43.40;;;;;;;-4.12;78.08;100913.29;106318;1286;73174;-60
2023/12/06 07:59:08;;;;;;;;;;;;;;;-4.12;78.08;100909.41;106325;1286;68136;-60
2023/12/06 08:01:55;;;;;;;112.80;45.10;;;;;;;-4.13;78.22;100911.05;106345;1286;72163;-60
2023/12/06 08:04:41;;;;;;;120.00;47.60;;;;;;;-4.11;78.19;100909.66;106269;1286;59396;-60
2023/12/06 08:07:27;;;;;;;103.70;43.40;;;;;;;-4.09;78.18;100908.89;106307;1286;59640;-60
2023/12/06 08:10:19;;;;;;;;;;;;;;;-4.07;78.27;100907.14;106067;1286;75188;-60
2023/12/06 08:13:05;;;;;;;110.50;43.60;;;;;;;-4.05;78.21;100903.86;105564;1290;67380;-59
2023/12/06 08:15:51;;;;;;;121.60;46.10;;;;;;;-4.02;78.35;100905.52;104930;1286;71191;-59
2023/12/06 08:18:38;;;;;;;106.30;45.70;;;;;;;-4.00;78.59;100910.00;104978;1286;61179;-58
2023/12/06 08:21:24;;;;;;;116.10;48.00;;;;;;;-3.98;78.54;100910.76;104960;1287;61157;-59
2023/12/06 08:24:10;;;;;;;108.30;46.50;;;;;;;-3.96;78.51;100910.49;104989;1286;74047;-59
2023/12/06 08:26:57;;;;;;;117.10;46.60;;;;;;;-3.94;78.50;100911.46;104940;1287;67635;-58
2023/12/06 08:29:43;;;;;;;109.10;45.60;;;;;;;-3.91;78.93;100907.03;104990;1289;74416;-60
2023/12/06 08:32:30;;;;;;;120.80;47.50;;;;;;;-3.90;78.77;100908.77;105023;1286;61097;-59
2023/12/06 08:35:16;;;;;;;102.40;44.00;;;;;;;-3.90;78.71;100907.41;105011;1291;61706;-59
2023/12/06 08:38:03;;;;;;;109.90;47.70;;;;;;;-3.88;78.70;100912.40;105000;1289;74216;-60
2023/12/06 08:40:50;;;;;;;106.40;44.90;;;;;;;-3.84;78.58;100915.26;104975;1289;66292;-60
2023/12/06 08:43:37;;;;;;;108.00;46.30;;;;;;;-3.79;78.71;100915.37;104960;1286;76785;-59
2023/12/06 08:46:24;;;;;;;119.70;46.70;;;;;;;-3.75;78.78;100914.05;104984;1286;61211;-60
2023/12/06 08:49:10;;;;;;;116.60;49.00;;;;;;;-3.74;78.79;100917.61;105012;1286;61171;-60
2023/12/06 08:51:57;;;;;;;118.70;49.10;;;;;;;-3.72;78.73;100917.53;104927;1288;74782;-60
2023/12/06 08:54:43;;;;;;;110.70;45.60;;;;;;;-3.70;78.66;100921.31;104922;1291;67143;-60
2023/12/06 08:57:29;;;;;;;111.10;47.50;;;;;;;-3.69;78.85;100925.23;105049;1286;71305;-61
2023/12/06 09:00:17;;;;;;;114.30;47.50;;;;;;;-3.66;78.83;100922.85;105020;1286;60854;-61
2023/12/06 09:03:03;;;;;;;124.90;50.40;;;;;;;-3.66;79.18;100922.20;104955;1287;59282;-60
2023/12/06 09:05:49;;;;;;;114.00;46.90;;;;;;;-3.67;79.31;100922.00;105067;1286;73313;-60
2023/12/06 09:08:36;;;;;;;121.50;48.30;;;;;;;-3.65;79.12;100923.56;105067;1287;67404;-60
2023/12/06 09:11:23;;;;;;;115.40;46.50;;;;;;;-3.64;79.11;100921.42;105043;1288;72910;-58
2023/12/06 09:14:09;;;;;;;118.90;45.50;;;;;;;-3.64;79.18;100919.09;105065;1289;61196;-60
2023/12/06 09:16:55;;;;;;;121.30;47.30;;;;;;;-3.60;79.08;100921.76;105069;1289;62420;-59
2023/12/06 09:19:41;;;;;;;127.50;48.50;;;;;;;-3.56;79.07;100927.16;105037;1289;73233;-61
2023/12/06 09:22:28;;;;;;;131.20;49.70;;;;;;;-3.54;79.27;100923.05;105017;1286;68718;-60
2023/12/06 09:25:14;;;;;;;127.80;48.50;;;;;;;-3.53;79.05;100930.34;104941;1287;71703;-61
2023/12/06 09:28:03;;;;;;;119.70;47.50;;;;;;;-3.51;79.35;100927.38;105003;1291;61343;-60
2023/12/06 09:30:49;;;;;;;115.60;44.50;;;;;;;-3.49;79.13;100923.61;105015;1290;59361;-60
2023/12/06 09:33:35;;;;;;;109.90;45.40;;;;;;;-3.43;79.24;100921.52;105023;1286;73292;-59
2023/12/06 09:36:22;;;;;;;100.00;41.90;;;;;;;-3.39;79.08;100921.38;104998;1287;67195;-61
2023/12/06 09:39:08;;;;;;;117.00;46.90;;;;;;;-3.35;79.54;100917.02;105082;1289;71256;-61
2023/12/06 09:41:54;;;;;;;95.40;38.20;;;;;;;-3.33;79.21;100917.95;105009;1286;60518;-60
2023/12/06 09:44:45;;;;;;;124.60;48.00;;;;;;;-3.30;79.51;100919.91;105012;1289;61724;-59
2023/12/06 09:47:33;;;;;;;126.60;47.70;;;;;;;-3.29;79.52;100925.84;105061;1289;73271;-59
2023/12/06 09:50:19;;;;;;;123.30;46.70;;;;;;;-3.27;79.43;100929.83;106367;1287;67534;-61
2023/12/06 09:53:05;;;;;;;;;;;;;;;-3.22;79.35;100933.25;106310;1286;72369;-61
2023/12/06 09:55:51;;;;;;;125.90;49.00;;;;;;;-3.19;79.31;100929.52;106311;1288;59061;-61
2023/12/06 09:58:37;;;;;;;118.00;45.70;;;;;;;-3.15;79.46;100930.35;106358;1286;59168;-61
2023/12/06 10:01:23;;;;;;;114.80;45.00;;;;;;;-3.13;79.32;100926.90;106304;1289;74031;-61
2023/12/06 10:04:10;;;;;;;110.50;44.60;;;;;;;-3.10;79.25;100926.33;106366;1288;68192;-61
2023/12/06 10:06:57;;;;;;;117.40;47.30;;;;;;;-3.03;79.31;100920.05;106258;1288;71250;-61
2023/12/06 10:09:51;;;;;;;120.70;48.00;;;;;;;-3.00;79.35;100914.65;106282;1289;59380;-61
2023/12/06 10:12:45;;;;;;;119.40;44.30;;;;;;;-2.97;79.41;100911.71;106289;1286;59382;-61
2023/12/06 10:15:38;;;;;;;107.50;44.60;;;;;;;-2.94;79.44;100910.02;106293;1286;72172;-61
2023/12/06 10:18:24;;;;;;;114.10;45.80;;;;;;;-2.90;79.61;100907.33;106179;1289;67387;-61
2023/12/06 10:21:10;;;;;;;113.40;46.80;;;;;;;-2.91;79.48;100905.90;106227;1286;71045;-61
2023/12/06 10:23:59;;;;;;;115.30;47.20;;;;;;;-2.85;79.54;100903.62;106241;1288;59425;-61
2023/12/06 10:26:49;;;;;;;113.20;45.90;;;;;;;-2.80;79.56;100898.48;106258;1288;59306;-61
2023/12/06 10:29:35;;;;;;;111.40;45.50;;;;;;;-2.74;79.56;100897.53;106352;1286;73399;-61
2023/12/06 10:32:22;;;;;;;113.30;46.00;;;;;;;-2.68;79.72;100892.75;106322;1286;67840;-61
2023/12/06 10:35:09;;;;;;;111.00;46.00;;;;;;;-2.65;79.74;100886.95;106187;1286;72319;-61
2023/12/06 10:37:57;;;;;;;112.90;48.10;;;;;;;-2.63;79.75;100888.35;106348;1287;59330;-60
2023/12/06 10:40:43;;;;;;;115.90;49.00;;;;;;;-2.59;79.76;100880.73;106358;1286;60200;-61
2023/12/06 10:43:31;;;;;;;;;;;;;;;-2.54;79.95;100879.63;106380;1289;73766;-61
2023/12/06 10:46:19;;;;;;;106.80;43.60;;;;;;;-2.51;79.85;100878.90;106297;1288;67944;-61
2023/12/06 10:49:07;;;;;;;115.40;47.00;;;;;;;-2.46;79.87;100874.36;106189;1286;71193;-61
2023/12/06 10:51:54;;;;;;;123.00;51.30;;;;;;;-2.44;79.88;100871.05;106250;1289;59576;-61
2023/12/06 10:54:43;;;;;;;125.70;50.80;;;;;;;-2.42;79.94;100871.14;106304;1288;60930;-60
2023/12/06 10:57:30;;;;;;;122.20;50.30;;;;;;;-2.38;79.98;100870.66;106310;1286;73277;-59
2023/12/06 11:00:17;;;;;;;108.10;46.30;;;;;;;-2.29;79.97;100868.96;106319;1290;69258;-61
2023/12/06 11:03:03;;;;;;;123.90;49.10;;;;;;;-2.26;79.98;100870.45;106326;1288;70474;-61
2023/12/06 11:05:55;;;;;;;115.60;46.40;;;;;;;-2.24;79.95;100871.67;106166;1287;208219;-61
2023/12/06 11:09:00;;;;;;;116.20;47.70;;;;;;;-2.22;79.99;100870.60;106325;1286;59010;-59
2023/12/06 11:12:07;;;;;;;120.20;48.50;;;;;;;-2.21;80.07;100876.36;106316;1286;74324;-61
2023/12/06 11:15:44;;;;;;;108.10;45.70;;;;;;;-2.22;80.03;100876.83;106310;1289;67542;-60
2023/12/06 11:18:43;;;;;;;114.00;47.40;;;;;;;-2.27;80.09;100878.34;105926;1288;71313;-59
2023/12/06 11:21:30;;;;;;;120.50;49.00;;;;;;;-2.34;80.06;100879.92;106315;1286;59656;-60
2023/12/06 11:24:16;;;;;;;122.20;50.90;;;;;;;-2.37;80.06;100878.79;106302;1286;59225;-61
2023/12/06 11:27:03;;;;;;;116.90;48.10;;;;;;;-2.41;80.11;100876.08;106341;1286;74403;-61
2023/12/06 11:29:49;;;;;;;123.80;48.60;;;;;;;-2.44;80.12;100874.45;106322;1286;67398;-61
2023/12/06 11:32:43;;;;;;;118.00;49.70;;;;;;;-2.48;80.08;100867.85;106340;1288;71683;-61
2023/12/06 11:35:41;;;;;;;125.40;50.80;;;;;;;-2.51;80.01;100868.59;106330;1286;58837;-61
2023/12/06 11:38:37;;;;;;;124.20;49.40;;;;;;;-2.53;80.25;100867.67;106333;1286;59254;-61
2023/12/06 11:41:23;;;;;;;120.00;49.90;;;;;;;-2.52;80.35;100865.16;106263;1287;74189;-61
2023/12/06 11:44:15;;;;;;;135.00;54.10;;;;;;;-2.51;80.23;100860.48;106161;1287;69831;-61
2023/12/06 11:47:05;;;;;;;122.60;50.30;;;;;;;-2.50;80.19;100863.57;105095;1287;72480;-59
2023/12/06 11:49:53;;;;;;;118.10;50.10;;;;;;;-2.47;80.15;100863.16;104973;1288;61169;-60
2023/12/06 11:52:48;;;;;;;119.10;50.40;;;;;;;-2.43;80.25;100861.84;105076;1289;61650;-59
2023/12/06 11:55:35;;;;;;;119.20;48.60;;;;;;;-2.39;80.16;100861.98;105017;1286;73272;-60
2023/12/06 11:58:22;;;;;;;99.90;42.00;;;;;;;-2.38;80.19;100860.87;105034;1287;70031;-60
2023/12/06 12:01:10;;;;;;;109.00;49.40;;;;;;;-2.37;80.21;100862.23;105106;1286;71175;-60
2023/12/06 12:03:57;;;;;;;118.00;48.80;;;;;;;-2.37;80.27;100861.75;104980;1288;61208;-61
2023/12/06 12:06:43;;;;;;;112.70;45.60;;;;;;;-2.32;80.23;100861.91;105074;1286;61237;-60
2023/12/06 12:09:30;;;;;;;114.50;46.30;;;;;;;-2.31;80.31;100863.98;105097;1287;75940;-60
2023/12/06 12:12:16;;;;;;;113.70;47.20;;;;;;;-2.28;80.20;100865.13;105003;1287;67100;-60
2023/12/06 12:15:07;;;;;;;123.10;51.10;;;;;;;-2.27;80.22;100868.36;105050;1286;71243;-59
2023/12/06 12:17:53;;;;;;;122.80;49.70;;;;;;;-2.29;80.28;100868.81;106357;1287;59334;-60
2023/12/06 12:20:39;;;;;;;122.70;49.40;;;;;;;-2.28;80.30;100869.32;106352;1286;59686;-61
2023/12/06 12:23:26;;;;;;;;;;;;;;;-2.24;80.29;100865.80;106361;1286;75134;-61
2023/12/06 12:26:13;;;;;;;111.50;46.20;;;;;;;-2.21;80.32;100858.33;105479;1289;67416;-60
2023/12/06 12:28:59;;;;;;;114.20;48.00;;;;;;;-2.18;80.50;100850.67;106195;1288;71444;-61
2023/12/06 12:31:46;;;;;;;119.00;50.50;;;;;;;-2.16;80.39;100847.04;106294;1289;59124;-61
2023/12/06 12:34:32;;;;;;;119.90;49.80;;;;;;;-2.13;80.43;100848.67;106182;1288;59309;-61
2023/12/06 12:37:18;;;;;;;;;;;;;;;-2.06;80.30;100848.39;106386;1286;74432;-61
2023/12/06 12:40:11;;;;;;;109.70;47.30;;;;;;;-2.00;80.34;100840.70;106356;1286;67328;-61
2023/12/06 12:42:57;;;;;;;113.60;47.90;;;;;;;-1.96;80.33;100843.20;106348;1286;71415;-61